createdAt,value
2022-12-18T00:00:51.272Z,-2.76
2022-12-18T00:01:57.542Z,-2.77
2022-12-18T00:02:59.644Z,-2.77
2022-12-18T00:04:07.761Z,-2.77
2022-12-18T00:05:09.915Z,-2.75
2022-12-18T00:06:14.667Z,-2.74
2022-12-18T00:07:17.596Z,-2.72
2022-12-18T00:08:20.208Z,-2.73
2022-12-18T00:09:24.094Z,-2.72
2022-12-18T00:10:28.419Z,-2.71
2022-12-18T00:11:32.783Z,-2.70
2022-12-18T00:12:34.695Z,-2.69
2022-12-18T00:13:37.993Z,-2.69
2022-12-18T00:14:41.597Z,-2.69
2022-12-18T00:15:43.666Z,-2.69
2022-12-18T00:16:47.433Z,-2.68
2022-12-18T00:17:49.302Z,-2.67
2022-12-18T00:18:54.306Z,-2.67
2022-12-18T00:19:57.359Z,-2.66
2022-12-18T00:21:00.400Z,-2.66
2022-12-18T00:22:03.239Z,-2.65
2022-12-18T00:23:06.522Z,-2.65
2022-12-18T00:24:10.465Z,-2.65
2022-12-18T00:25:13.297Z,-2.65
2022-12-18T00:26:18.521Z,-2.64
2022-12-18T00:27:21.459Z,-2.64
2022-12-18T00:28:23.408Z,-2.63
2022-12-18T00:29:26.255Z,-2.64
2022-12-18T00:30:29.128Z,-2.63
2022-12-18T00:31:32.056Z,-2.64
2022-12-18T00:32:35.388Z,-2.63
2022-12-18T00:33:40.057Z,-2.63
2022-12-18T00:34:46.199Z,-2.65
2022-12-18T00:35:48.090Z,-2.69
2022-12-18T00:36:50.958Z,-2.71
2022-12-18T00:37:52.994Z,-2.71
2022-12-18T00:38:57.309Z,-2.72
2022-12-18T00:40:00.199Z,-2.73
2022-12-18T00:41:02.869Z,-2.76
2022-12-18T00:42:24.618Z,-2.77
2022-12-18T00:43:26.599Z,-2.83
2022-12-18T00:44:29.499Z,-2.88
2022-12-18T00:45:32.515Z,-2.89
2022-12-18T00:46:35.834Z,-2.88
2022-12-18T00:47:37.718Z,-2.87
2022-12-18T00:48:40.678Z,-2.85
2022-12-18T00:49:42.582Z,-2.83
2022-12-18T00:50:45.518Z,-2.81
2022-12-18T00:51:47.785Z,-2.79
2022-12-18T00:52:50.803Z,-2.79
2022-12-18T00:53:52.685Z,-2.79
2022-12-18T00:54:55.475Z,-2.77
2022-12-18T00:55:57.374Z,-2.77
2022-12-18T00:57:00.267Z,-2.77
2022-12-18T00:58:03.481Z,-2.79
2022-12-18T00:59:06.810Z,-2.78
2022-12-18T01:00:13.328Z,-2.79
2022-12-18T01:01:16.963Z,-2.78
2022-12-18T01:02:19.171Z,-2.78
2022-12-18T01:03:22.151Z,-2.79
2022-12-18T01:04:24.055Z,-2.79
2022-12-18T01:05:28.096Z,-2.78
2022-12-18T01:06:30.499Z,-2.80
2022-12-18T01:07:33.372Z,-2.79
2022-12-18T01:08:35.720Z,-2.77
2022-12-18T01:09:38.615Z,-2.78
2022-12-18T01:10:41.847Z,-2.78
2022-12-18T01:11:44.683Z,-2.80
2022-12-18T01:12:46.613Z,-2.79
2022-12-18T01:13:51.137Z,-2.79
2022-12-18T01:14:53.102Z,-2.78
2022-12-18T01:15:56.892Z,-2.77
2022-12-18T01:16:59.856Z,-2.77
2022-12-18T01:18:02.185Z,-2.76
2022-12-18T01:19:05.136Z,-2.77
2022-12-18T01:20:09.538Z,-2.76
2022-12-18T01:21:14.595Z,-2.76
2022-12-18T01:22:16.480Z,-2.77
2022-12-18T01:23:21.277Z,-2.78
2022-12-18T01:24:23.347Z,-2.78
2022-12-18T01:25:26.188Z,-2.80
2022-12-18T01:26:30.514Z,-2.79
2022-12-18T01:27:35.497Z,-2.79
2022-12-18T01:28:40.633Z,-2.80
2022-12-18T01:29:45.409Z,-2.79
2022-12-18T01:30:47.275Z,-2.79
2022-12-18T01:31:50.247Z,-2.78
2022-12-18T01:32:52.245Z,-2.77
2022-12-18T01:33:56.666Z,-2.78
2022-12-18T01:34:58.591Z,-2.76
2022-12-18T01:36:03.597Z,-2.78
2022-12-18T01:37:06.148Z,-2.77
2022-12-18T01:38:09.052Z,-2.79
2022-12-18T01:39:13.606Z,-2.80
2022-12-18T01:40:18.323Z,-2.82
2022-12-18T01:41:22.673Z,-2.83
2022-12-18T01:42:26.493Z,-2.82
2022-12-18T01:43:46.024Z,-2.87
2022-12-18T01:45:02.656Z,-2.89
2022-12-18T01:46:04.800Z,-2.93
2022-12-18T01:47:07.862Z,-2.96
2022-12-18T01:48:11.413Z,-2.95
2022-12-18T01:49:13.319Z,-2.95
2022-12-18T01:50:19.866Z,-2.93
2022-12-18T01:51:22.065Z,-2.92
2022-12-18T01:52:28.036Z,-2.90
2022-12-18T01:53:30.391Z,-2.89
2022-12-18T01:54:34.509Z,-2.87
2022-12-18T01:55:42.854Z,-2.85
2022-12-18T01:56:45.313Z,-2.83
2022-12-18T01:57:49.215Z,-2.85
2022-12-18T01:58:58.242Z,-2.83
2022-12-18T02:00:06.704Z,-2.83
2022-12-18T02:01:15.274Z,-2.86
2022-12-18T02:02:19.763Z,-2.91
2022-12-18T02:03:21.963Z,-2.93
2022-12-18T02:04:27.268Z,-2.92
2022-12-18T02:05:40.359Z,-2.92
2022-12-18T02:06:43.971Z,-2.92
2022-12-18T02:07:58.121Z,-2.91
2022-12-18T02:09:11.380Z,-2.91
2022-12-18T02:10:18.501Z,-2.90
2022-12-18T02:11:34.918Z,-2.90
2022-12-18T02:12:46.135Z,-2.90
2022-12-18T02:13:58.527Z,-2.91
2022-12-18T02:15:10.809Z,-2.94
2022-12-18T02:16:23.634Z,-2.95
2022-12-18T02:17:35.830Z,-2.96
2022-12-18T02:18:43.101Z,-2.93
2022-12-18T02:20:00.836Z,-2.93
2022-12-18T02:21:14.703Z,-2.92
2022-12-18T02:22:30.502Z,-2.92
2022-12-18T02:23:49.169Z,-2.93
2022-12-18T02:25:00.968Z,-2.92
2022-12-18T02:26:15.783Z,-2.91
2022-12-18T02:27:21.196Z,-2.91
2022-12-18T02:28:30.464Z,-2.89
2022-12-18T02:29:40.032Z,-2.88
2022-12-18T02:30:46.410Z,-2.88
2022-12-18T02:31:53.790Z,-2.88
2022-12-18T02:32:59.702Z,-2.87
2022-12-18T02:34:05.734Z,-2.86
2022-12-18T02:35:18.454Z,-2.86
2022-12-18T02:36:22.963Z,-2.85
2022-12-18T02:37:29.954Z,-2.85
2022-12-18T02:38:34.810Z,-2.87
2022-12-18T02:39:46.692Z,-2.89
2022-12-18T02:40:53.059Z,-2.88
2022-12-18T02:41:58.752Z,-2.87
2022-12-18T02:43:04.391Z,-2.88
2022-12-18T02:44:11.606Z,-2.88
2022-12-18T02:45:13.505Z,-2.87
2022-12-18T02:46:30.281Z,-2.86
2022-12-18T02:47:36.492Z,-2.87
2022-12-18T02:48:39.738Z,-2.87
2022-12-18T02:49:53.318Z,-2.86
2022-12-18T02:51:05.366Z,-2.86
2022-12-18T02:52:18.189Z,-2.86
2022-12-18T02:53:29.462Z,-2.85
2022-12-18T02:54:47.654Z,-2.85
2022-12-18T02:56:03.951Z,-2.83
2022-12-18T02:57:18.060Z,-2.83
2022-12-18T02:58:29.071Z,-2.82
2022-12-18T02:59:43.259Z,-2.82
2022-12-18T03:00:53.511Z,-2.82
2022-12-18T03:02:02.122Z,-2.80
2022-12-18T03:03:13.047Z,-2.80
2022-12-18T03:04:22.258Z,-2.81
2022-12-18T03:05:29.843Z,-2.81
2022-12-18T03:06:39.182Z,-2.81
2022-12-18T03:07:49.025Z,-2.81
2022-12-18T03:08:58.738Z,-2.80
2022-12-18T03:10:03.957Z,-2.81
2022-12-18T03:11:09.279Z,-2.81
2022-12-18T03:12:26.345Z,-2.82
2022-12-18T03:13:37.149Z,-2.83
2022-12-18T03:14:43.958Z,-2.82
2022-12-18T03:15:49.161Z,-2.85
2022-12-18T03:16:56.760Z,-2.86
2022-12-18T03:18:05.731Z,-2.86
2022-12-18T03:19:13.713Z,-2.86
2022-12-18T03:20:20.216Z,-2.87
2022-12-18T03:21:27.875Z,-2.87
2022-12-18T03:22:33.010Z,-2.86
2022-12-18T03:23:42.645Z,-2.86
2022-12-18T03:24:47.347Z,-2.85
2022-12-18T03:25:56.409Z,-2.85
2022-12-18T03:27:03.486Z,-2.85
2022-12-18T03:28:12.494Z,-2.85
2022-12-18T03:29:21.006Z,-2.85
2022-12-18T03:30:24.710Z,-2.85
2022-12-18T03:31:30.199Z,-2.87
2022-12-18T03:32:37.993Z,-2.88
2022-12-18T03:33:45.011Z,-2.91
2022-12-18T03:34:52.552Z,-2.91
2022-12-18T03:35:57.273Z,-2.91
2022-12-18T03:37:06.275Z,-2.91
2022-12-18T03:38:09.145Z,-2.91
2022-12-18T03:39:16.895Z,-2.92
2022-12-18T03:40:32.261Z,-2.92
2022-12-18T03:41:43.320Z,-2.93
2022-12-18T03:43:08.893Z,-2.92
2022-12-18T03:44:15.967Z,-2.91
2022-12-18T03:45:26.658Z,-2.91
2022-12-18T03:46:34.587Z,-2.91
2022-12-18T03:47:45.412Z,-2.92
2022-12-18T03:48:53.697Z,-2.93
2022-12-18T03:50:09.614Z,-2.98
2022-12-18T03:51:21.720Z,-2.99
2022-12-18T03:52:31.354Z,-3.08
2022-12-18T03:53:41.751Z,-3.10
2022-12-18T03:54:45.767Z,-3.09
2022-12-18T03:55:53.566Z,-3.10
2022-12-18T03:57:02.047Z,-3.09
2022-12-18T03:58:09.407Z,-3.08
2022-12-18T03:59:27.234Z,-3.10
2022-12-18T04:00:31.917Z,-3.11
2022-12-18T04:01:47.245Z,-3.08
2022-12-18T04:02:53.946Z,-3.09
2022-12-18T04:04:02.710Z,-3.08
2022-12-18T04:05:12.012Z,-3.06
2022-12-18T04:06:18.090Z,-3.08
2022-12-18T04:07:22.811Z,-3.06
2022-12-18T04:08:26.702Z,-3.07
2022-12-18T04:09:41.255Z,-3.08
2022-12-18T04:10:44.052Z,-3.10
2022-12-18T04:11:48.766Z,-3.11
2022-12-18T04:12:52.149Z,-3.10
2022-12-18T04:13:57.852Z,-3.09
2022-12-18T04:15:01.119Z,-3.07
2022-12-18T04:16:04.416Z,-3.05
2022-12-18T04:17:06.349Z,-3.04
2022-12-18T04:18:10.159Z,-3.02
2022-12-18T04:19:15.707Z,-3.01
2022-12-18T04:20:20.665Z,-2.99
2022-12-18T04:21:23.727Z,-2.99
2022-12-18T04:22:27.207Z,-2.98
2022-12-18T04:23:34.161Z,-2.99
2022-12-18T04:24:38.463Z,-2.99
2022-12-18T04:25:48.377Z,-3.00
2022-12-18T04:26:57.979Z,-3.00
2022-12-18T04:28:03.084Z,-3.00
2022-12-18T04:29:06.184Z,-2.98
2022-12-18T04:30:10.507Z,-2.99
2022-12-18T04:31:13.601Z,-2.98
2022-12-18T04:32:15.732Z,-2.97
2022-12-18T04:33:20.975Z,-2.97
2022-12-18T04:34:23.397Z,-2.96
2022-12-18T04:35:29.095Z,-2.95
2022-12-18T04:36:31.513Z,-2.96
2022-12-18T04:37:34.602Z,-2.96
2022-12-18T04:38:37.572Z,-2.96
2022-12-18T04:39:43.666Z,-2.97
2022-12-18T04:40:53.215Z,-2.96
2022-12-18T04:42:03.579Z,-2.95
2022-12-18T04:43:06.068Z,-2.95
2022-12-18T04:44:09.241Z,-2.95
2022-12-18T04:45:12.528Z,-2.95
2022-12-18T04:46:15.460Z,-2.97
2022-12-18T04:47:17.501Z,-2.96
2022-12-18T04:48:21.231Z,-2.97
2022-12-18T04:49:23.232Z,-2.97
2022-12-18T04:50:26.075Z,-2.97
2022-12-18T04:51:28.000Z,-2.96
2022-12-18T04:52:33.461Z,-2.96
2022-12-18T04:53:35.496Z,-2.94
2022-12-18T04:54:38.342Z,-2.95
2022-12-18T04:55:40.180Z,-2.95
2022-12-18T04:56:43.071Z,-2.94
2022-12-18T04:57:44.908Z,-2.93
2022-12-18T04:58:47.854Z,-2.94
2022-12-18T04:59:49.736Z,-2.93
2022-12-18T05:00:53.955Z,-2.93
2022-12-18T05:01:55.977Z,-2.92
2022-12-18T05:02:59.071Z,-2.92
2022-12-18T05:04:01.097Z,-2.92
2022-12-18T05:05:04.095Z,-2.91
2022-12-18T05:06:07.041Z,-2.91
2022-12-18T05:07:09.901Z,-2.90
2022-12-18T05:08:11.701Z,-2.90
2022-12-18T05:09:14.693Z,-2.90
2022-12-18T05:10:16.636Z,-2.91
2022-12-18T05:11:19.821Z,-2.90
2022-12-18T05:12:24.678Z,-2.90
2022-12-18T05:13:27.679Z,-2.90
2022-12-18T05:14:30.393Z,-2.90
2022-12-18T05:15:35.183Z,-2.90
2022-12-18T05:16:38.552Z,-2.90
2022-12-18T05:17:41.416Z,-2.91
2022-12-18T05:18:43.423Z,-2.91
2022-12-18T05:19:46.270Z,-2.91
2022-12-18T05:20:48.437Z,-2.91
2022-12-18T05:21:51.316Z,-2.91
2022-12-18T05:22:53.810Z,-2.91
2022-12-18T05:23:56.853Z,-2.92
2022-12-18T05:24:58.732Z,-2.91
2022-12-18T05:26:03.708Z,-2.90
2022-12-18T05:27:05.625Z,-2.92
2022-12-18T05:28:08.506Z,-2.93
2022-12-18T05:29:13.196Z,-2.93
2022-12-18T05:30:18.396Z,-2.93
2022-12-18T05:31:20.346Z,-2.93
2022-12-18T05:32:24.587Z,-2.93
2022-12-18T05:33:28.301Z,-2.94
2022-12-18T05:34:31.226Z,-2.95
2022-12-18T05:35:33.159Z,-2.96
2022-12-18T05:36:36.351Z,-2.98
2022-12-18T05:37:43.021Z,-2.98
2022-12-18T05:38:46.378Z,-2.98
2022-12-18T05:39:48.273Z,-2.97
2022-12-18T05:40:51.616Z,-2.99
2022-12-18T05:41:53.451Z,-2.99
2022-12-18T05:42:56.435Z,-2.99
2022-12-18T05:43:59.467Z,-2.98
2022-12-18T05:45:02.354Z,-2.97
2022-12-18T05:46:06.238Z,-2.98
2022-12-18T05:47:09.235Z,-3.01
2022-12-18T05:48:15.011Z,-3.03
2022-12-18T05:49:17.864Z,-3.03
2022-12-18T05:50:19.752Z,-3.06
2022-12-18T05:51:24.657Z,-3.07
2022-12-18T05:52:26.822Z,-3.05
2022-12-18T05:53:29.657Z,-3.03
2022-12-18T05:54:32.078Z,-3.02
2022-12-18T05:55:36.022Z,-3.02
2022-12-18T05:56:37.926Z,-2.99
2022-12-18T05:57:40.771Z,-2.99
2022-12-18T05:58:42.840Z,-2.97
2022-12-18T05:59:45.729Z,-2.99
2022-12-18T06:00:47.541Z,-2.99
2022-12-18T06:01:50.477Z,-2.99
2022-12-18T06:02:52.581Z,-2.99
2022-12-18T06:03:57.427Z,-3.03
2022-12-18T06:04:59.301Z,-3.09
2022-12-18T06:06:02.831Z,-3.09
2022-12-18T06:07:04.779Z,-3.09
2022-12-18T06:08:07.809Z,-3.09
2022-12-18T06:09:10.527Z,-3.08
2022-12-18T06:10:13.724Z,-3.08
2022-12-18T06:11:18.809Z,-3.05
2022-12-18T06:12:22.093Z,-3.04
2022-12-18T06:13:24.107Z,-3.06
2022-12-18T06:14:26.995Z,-3.05
2022-12-18T06:15:28.943Z,-3.05
2022-12-18T06:16:32.883Z,-3.05
2022-12-18T06:17:35.310Z,-3.04
2022-12-18T06:18:39.477Z,-3.04
2022-12-18T06:19:43.741Z,-3.03
2022-12-18T06:20:45.649Z,-3.02
2022-12-18T06:21:50.163Z,-3.01
2022-12-18T06:22:52.125Z,-3.00
2022-12-18T06:23:54.981Z,-3.00
2022-12-18T06:24:56.809Z,-2.98
2022-12-18T06:25:59.709Z,-2.98
2022-12-18T06:27:01.584Z,-2.98
2022-12-18T06:28:04.569Z,-2.98
2022-12-18T06:29:07.367Z,-2.98
2022-12-18T06:30:11.796Z,-2.98
2022-12-18T06:31:13.952Z,-2.99
2022-12-18T06:32:17.055Z,-2.98
2022-12-18T06:33:19.073Z,-2.97
2022-12-18T06:34:21.987Z,-2.97
2022-12-18T06:35:25.297Z,-2.97
2022-12-18T06:36:30.335Z,-3.02
2022-12-18T06:37:32.560Z,-3.04
2022-12-18T06:38:37.683Z,-3.05
2022-12-18T06:39:39.888Z,-3.05
2022-12-18T06:40:42.858Z,-3.04
2022-12-18T06:41:44.786Z,-3.04
2022-12-18T06:42:47.688Z,-3.03
2022-12-18T06:43:49.628Z,-3.03
2022-12-18T06:44:52.580Z,-3.04
2022-12-18T06:46:00.118Z,-3.03
2022-12-18T06:47:03.126Z,-3.02
2022-12-18T06:48:05.106Z,-3.02
2022-12-18T06:49:10.068Z,-3.01
2022-12-18T06:50:12.022Z,-3.01
2022-12-18T06:51:18.305Z,-2.99
2022-12-18T06:52:20.344Z,-3.00
2022-12-18T06:53:23.231Z,-2.99
2022-12-18T06:54:25.182Z,-2.99
2022-12-18T06:55:28.143Z,-2.99
2022-12-18T06:56:31.231Z,-2.99
2022-12-18T06:57:33.296Z,-2.97
2022-12-18T06:58:36.163Z,-2.98
2022-12-18T06:59:38.075Z,-2.96
2022-12-18T07:00:40.925Z,-2.97
2022-12-18T07:01:42.941Z,-2.96
2022-12-18T07:02:46.002Z,-2.96
2022-12-18T07:03:48.322Z,-2.95
2022-12-18T07:04:53.896Z,-2.94
2022-12-18T07:05:55.801Z,-2.95
2022-12-18T07:07:00.052Z,-2.95
2022-12-18T07:08:01.933Z,-2.96
2022-12-18T07:09:04.894Z,-2.97
2022-12-18T07:10:07.126Z,-2.96
2022-12-18T07:11:10.058Z,-2.97
2022-12-18T07:12:12.057Z,-2.96
2022-12-18T07:13:15.041Z,-2.97
2022-12-18T07:14:17.426Z,-3.00
2022-12-18T07:15:20.272Z,-3.00
2022-12-18T07:16:25.691Z,-3.01
2022-12-18T07:17:29.361Z,-3.02
2022-12-18T07:18:31.344Z,-3.02
2022-12-18T07:19:34.578Z,-3.03
2022-12-18T07:20:36.555Z,-3.03
2022-12-18T07:21:40.692Z,-3.02
2022-12-18T07:22:43.945Z,-3.01
2022-12-18T07:23:48.930Z,-3.01
2022-12-18T07:24:52.163Z,-3.01
2022-12-18T07:25:54.339Z,-3.02
2022-12-18T07:26:57.215Z,-3.02
2022-12-18T07:27:59.075Z,-3.03
2022-12-18T07:29:01.891Z,-3.02
2022-12-18T07:30:04.888Z,-3.02
2022-12-18T07:31:09.328Z,-3.05
2022-12-18T07:32:12.366Z,-3.10
2022-12-18T07:33:14.595Z,-3.10
2022-12-18T07:34:17.490Z,-3.11
2022-12-18T07:35:24.713Z,-3.12
2022-12-18T07:36:28.185Z,-3.09
2022-12-18T07:37:30.032Z,-3.09
2022-12-18T07:38:35.147Z,-3.08
2022-12-18T07:39:37.043Z,-3.08
2022-12-18T07:40:39.933Z,-3.06
2022-12-18T07:41:46.734Z,-3.06
2022-12-18T07:42:52.520Z,-3.04
2022-12-18T07:43:54.532Z,-3.02
2022-12-18T07:44:57.421Z,-3.03
2022-12-18T07:46:00.656Z,-3.01
2022-12-18T07:47:06.615Z,-3.00
2022-12-18T07:48:12.313Z,-3.00
2022-12-18T07:49:15.275Z,-2.98
2022-12-18T07:50:17.578Z,-2.99
2022-12-18T07:51:20.863Z,-2.99
2022-12-18T07:52:25.975Z,-2.99
2022-12-18T07:53:29.498Z,-2.98
2022-12-18T07:54:33.720Z,-2.98
2022-12-18T07:55:59.877Z,-2.97
2022-12-18T07:56:59.672Z,-2.97
2022-12-18T07:58:05.211Z,-3.01
2022-12-18T07:59:08.088Z,-3.03
2022-12-18T08:00:12.408Z,-3.02
2022-12-18T08:01:14.527Z,-3.02
2022-12-18T08:02:17.691Z,-3.02
2022-12-18T08:03:20.422Z,-3.01
2022-12-18T08:04:23.348Z,-3.00
2022-12-18T08:05:26.306Z,-3.00
2022-12-18T08:06:29.230Z,-2.99
2022-12-18T08:07:31.112Z,-3.05
2022-12-18T08:08:35.130Z,-3.05
2022-12-18T08:09:39.364Z,-3.05
2022-12-18T08:10:41.242Z,-3.05
2022-12-18T08:11:44.187Z,-3.05
2022-12-18T08:12:46.129Z,-3.06
2022-12-18T08:13:48.988Z,-3.06
2022-12-18T08:14:51.382Z,-3.07
2022-12-18T08:15:59.068Z,-3.05
2022-12-18T08:17:01.046Z,-3.06
2022-12-18T08:18:04.040Z,-3.05
2022-12-18T08:19:05.952Z,-3.05
2022-12-18T08:20:10.173Z,-3.04
2022-12-18T08:21:13.364Z,-3.05
2022-12-18T08:22:16.216Z,-3.05
2022-12-18T08:23:18.058Z,-3.03
2022-12-18T08:24:20.876Z,-3.04
2022-12-18T08:25:25.064Z,-3.03
2022-12-18T08:26:28.762Z,-3.05
2022-12-18T08:27:31.665Z,-3.05
2022-12-18T08:28:35.025Z,-3.05
2022-12-18T08:29:37.886Z,-3.06
2022-12-18T08:30:39.800Z,-3.05
2022-12-18T08:31:43.245Z,-3.05
2022-12-18T08:32:45.223Z,-3.04
2022-12-18T08:33:50.880Z,-3.05
2022-12-18T08:34:53.915Z,-3.04
2022-12-18T08:35:55.852Z,-3.04
2022-12-18T08:36:58.677Z,-3.03
2022-12-18T08:38:00.544Z,-3.03
2022-12-18T08:39:03.379Z,-3.02
2022-12-18T08:40:06.677Z,-3.01
2022-12-18T08:41:12.744Z,-3.00
2022-12-18T08:42:32.552Z,-3.00
2022-12-18T08:43:53.144Z,-2.99
2022-12-18T08:44:56.280Z,-2.99
2022-12-18T08:45:58.322Z,-2.98
2022-12-18T08:47:01.165Z,-2.98
2022-12-18T08:48:03.087Z,-2.98
2022-12-18T08:49:06.712Z,-2.97
2022-12-18T08:50:10.893Z,-2.98
2022-12-18T08:51:14.142Z,-2.99
2022-12-18T08:52:17.156Z,-2.97
2022-12-18T08:53:18.963Z,-2.98
2022-12-18T08:54:21.856Z,-2.98
2022-12-18T08:55:23.941Z,-2.98
2022-12-18T08:56:28.248Z,-2.97
2022-12-18T08:57:31.098Z,-2.96
2022-12-18T08:58:33.018Z,-2.95
2022-12-18T08:59:36.990Z,-2.95
2022-12-18T09:00:38.892Z,-2.95
2022-12-18T09:01:41.880Z,-2.94
2022-12-18T09:02:44.053Z,-2.94
2022-12-18T09:03:50.234Z,-2.93
2022-12-18T09:04:57.093Z,-2.94
2022-12-18T09:06:00.794Z,-2.94
2022-12-18T09:07:03.698Z,-2.93
2022-12-18T09:08:06.802Z,-2.94
2022-12-18T09:09:08.697Z,-2.94
2022-12-18T09:10:11.620Z,-2.96
2022-12-18T09:11:16.307Z,-2.97
2022-12-18T09:12:20.595Z,-2.98
2022-12-18T09:13:22.962Z,-2.99
2022-12-18T09:14:25.914Z,-3.01
2022-12-18T09:15:27.814Z,-3.00
2022-12-18T09:16:33.003Z,-3.01
2022-12-18T09:17:36.075Z,-3.02
2022-12-18T09:18:39.260Z,-3.01
2022-12-18T09:19:42.516Z,-3.01
2022-12-18T09:20:44.702Z,-3.00
2022-12-18T09:21:48.431Z,-2.99
2022-12-18T09:22:51.662Z,-2.98
2022-12-18T09:23:56.215Z,-2.97
2022-12-18T09:24:59.036Z,-2.98
2022-12-18T09:26:01.265Z,-3.00
2022-12-18T09:27:04.217Z,-3.00
2022-12-18T09:28:11.273Z,-3.01
2022-12-18T09:29:18.743Z,-3.01
2022-12-18T09:30:20.919Z,-3.01
2022-12-18T09:31:26.055Z,-3.04
2022-12-18T09:32:28.936Z,-3.03
2022-12-18T09:33:30.843Z,-3.04
2022-12-18T09:34:34.713Z,-3.03
2022-12-18T09:35:41.615Z,-3.01
2022-12-18T09:36:44.604Z,-3.01
2022-12-18T09:37:46.572Z,-2.99
2022-12-18T09:38:49.504Z,-2.99
2022-12-18T09:39:51.407Z,-2.98
2022-12-18T09:40:56.428Z,-2.98
2022-12-18T09:42:00.590Z,-2.98
2022-12-18T09:43:05.825Z,-2.98
2022-12-18T09:44:21.950Z,-2.98
2022-12-18T09:45:25.641Z,-3.01
2022-12-18T09:46:32.464Z,-3.00
2022-12-18T09:47:39.785Z,-3.00
2022-12-18T09:48:45.591Z,-3.00
2022-12-18T09:49:51.351Z,-3.00
2022-12-18T09:50:56.639Z,-3.00
2022-12-18T09:52:04.481Z,-2.98
2022-12-18T09:53:15.066Z,-2.98
2022-12-18T09:54:23.664Z,-2.98
2022-12-18T09:55:36.818Z,-2.98
2022-12-18T09:56:43.494Z,-2.98
2022-12-18T09:57:51.441Z,-2.99
2022-12-18T09:58:59.609Z,-2.99
2022-12-18T10:00:17.203Z,-2.99
2022-12-18T10:01:23.712Z,-3.00
2022-12-18T10:02:28.756Z,-2.99
2022-12-18T10:03:31.841Z,-2.98
2022-12-18T10:04:34.003Z,-2.96
2022-12-18T10:05:43.049Z,-2.97
2022-12-18T10:06:51.363Z,-2.96
2022-12-18T10:08:00.987Z,-2.95
2022-12-18T10:09:11.393Z,-2.95
2022-12-18T10:10:25.564Z,-2.94
2022-12-18T10:11:41.060Z,-2.95
2022-12-18T10:12:51.969Z,-2.95
2022-12-18T10:14:00.271Z,-2.95
2022-12-18T10:15:09.043Z,-2.93
2022-12-18T10:16:17.040Z,-2.93
2022-12-18T10:17:28.511Z,-2.95
2022-12-18T10:18:45.247Z,-2.97
2022-12-18T10:19:54.750Z,-2.98
2022-12-18T10:21:05.919Z,-2.98
2022-12-18T10:22:23.544Z,-2.96
2022-12-18T10:23:34.789Z,-2.96
2022-12-18T10:24:44.564Z,-2.96
2022-12-18T10:25:55.898Z,-2.95
2022-12-18T10:27:09.631Z,-2.93
2022-12-18T10:28:15.098Z,-2.93
2022-12-18T10:29:18.172Z,-2.92
2022-12-18T10:30:25.547Z,-2.92
2022-12-18T10:31:27.630Z,-2.92
2022-12-18T10:32:32.797Z,-2.92
2022-12-18T10:33:36.695Z,-2.90
2022-12-18T10:34:38.529Z,-2.90
2022-12-18T10:35:44.310Z,-2.90
2022-12-18T10:36:48.607Z,-2.91
2022-12-18T10:38:22.422Z,-2.90
2022-12-18T10:39:27.213Z,-2.90
2022-12-18T10:40:29.477Z,-2.89
2022-12-18T10:41:33.335Z,-2.88
2022-12-18T10:42:35.247Z,-2.89
2022-12-18T10:43:39.881Z,-2.90
2022-12-18T10:44:41.881Z,-2.91
2022-12-18T10:46:01.798Z,-2.92
2022-12-18T10:47:11.656Z,-2.92
2022-12-18T10:48:23.088Z,-2.91
2022-12-18T10:49:28.844Z,-2.90
2022-12-18T10:51:01.793Z,-2.91
2022-12-18T10:52:16.090Z,-2.90
2022-12-18T10:53:21.810Z,-2.90
2022-12-18T10:54:27.413Z,-2.88
2022-12-18T10:55:35.394Z,-2.89
2022-12-18T10:56:39.024Z,-2.88
2022-12-18T10:57:42.711Z,-2.87
2022-12-18T10:58:57.440Z,-2.87
2022-12-18T11:00:03.858Z,-2.86
2022-12-18T11:01:10.927Z,-2.86
2022-12-18T11:02:29.537Z,-2.85
2022-12-18T11:03:36.523Z,-2.86
2022-12-18T11:04:53.142Z,-2.87
2022-12-18T11:06:03.828Z,-2.87
2022-12-18T11:07:08.568Z,-2.86
2022-12-18T11:08:22.365Z,-2.85
2022-12-18T11:09:26.797Z,-2.86
2022-12-18T11:10:32.823Z,-2.84
2022-12-18T11:11:35.781Z,-2.84
2022-12-18T11:12:37.735Z,-2.84
2022-12-18T11:13:41.364Z,-2.83
2022-12-18T11:14:47.603Z,-2.82
2022-12-18T11:15:51.482Z,-2.81
2022-12-18T11:17:24.494Z,-2.81
2022-12-18T11:18:24.693Z,-2.80
2022-12-18T11:19:34.967Z,-2.79
2022-12-18T11:20:38.136Z,-2.80
2022-12-18T11:21:42.625Z,-2.79
2022-12-18T11:22:56.288Z,-2.79
2022-12-18T11:23:58.263Z,-2.78
2022-12-18T11:26:37.120Z,-2.75
2022-12-18T11:27:41.955Z,-2.76
2022-12-18T11:28:48.425Z,-2.76
2022-12-18T11:29:52.017Z,-2.76
2022-12-18T11:31:14.002Z,-2.77
2022-12-18T11:32:38.342Z,-2.77
2022-12-18T11:33:58.491Z,-2.77
2022-12-18T11:35:16.922Z,-2.76
2022-12-18T11:36:20.631Z,-2.77
2022-12-18T11:37:23.715Z,-2.77
2022-12-18T11:38:29.967Z,-2.77
2022-12-18T11:39:38.343Z,-2.76
2022-12-18T11:40:46.238Z,-2.76
2022-12-18T11:42:14.326Z,-2.75
2022-12-18T11:43:20.871Z,-2.75
2022-12-18T11:44:27.871Z,-2.77
2022-12-18T11:45:32.972Z,-2.76
2022-12-18T11:46:38.560Z,-2.76
2022-12-18T11:47:50.099Z,-2.76
2022-12-18T11:48:59.778Z,-2.75
2022-12-18T11:50:04.875Z,-2.75
2022-12-18T11:51:15.347Z,-2.75
2022-12-18T11:52:21.859Z,-2.76
2022-12-18T11:53:26.667Z,-2.75
2022-12-18T11:54:28.517Z,-2.73
2022-12-18T11:55:42.625Z,-2.75
2022-12-18T11:56:49.170Z,-2.75
2022-12-18T11:57:59.695Z,-2.74
2022-12-18T11:59:18.055Z,-2.73
2022-12-18T12:00:21.924Z,-2.73
2022-12-18T12:01:43.403Z,-2.72
2022-12-18T12:03:18.863Z,-2.72
2022-12-18T12:05:00.340Z,-2.72
2022-12-18T12:06:15.545Z,-2.72
2022-12-18T12:07:29.783Z,-2.72
2022-12-18T12:08:42.160Z,-2.72
2022-12-18T12:09:54.378Z,-2.73
2022-12-18T12:11:07.888Z,-2.74
2022-12-18T12:12:28.145Z,-2.76
2022-12-18T12:13:46.833Z,-2.76
2022-12-18T12:14:59.214Z,-2.77
2022-12-18T12:16:14.559Z,-2.77
2022-12-18T12:17:30.431Z,-2.78
2022-12-18T12:18:50.279Z,-2.78
2022-12-18T12:20:00.792Z,-2.79
2022-12-18T12:21:11.798Z,-2.78
2022-12-18T12:22:24.732Z,-2.82
2022-12-18T12:23:36.624Z,-2.83
2022-12-18T12:24:50.946Z,-2.83
2022-12-18T12:26:01.791Z,-2.83
2022-12-18T12:27:18.529Z,-2.83
2022-12-18T12:28:34.095Z,-2.82
2022-12-18T12:29:48.611Z,-2.81
2022-12-18T12:31:03.504Z,-2.80
2022-12-18T12:32:28.266Z,-2.81
2022-12-18T12:33:44.129Z,-2.83
2022-12-18T12:35:01.772Z,-2.82
2022-12-18T12:36:17.338Z,-2.81
2022-12-18T12:37:29.808Z,-2.80
2022-12-18T12:38:37.316Z,-2.80
2022-12-18T12:39:43.225Z,-2.79
2022-12-18T12:40:56.629Z,-2.81
2022-12-18T12:42:20.171Z,-2.82
2022-12-18T12:43:29.473Z,-2.83
2022-12-18T12:44:36.699Z,-2.85
2022-12-18T12:45:46.586Z,-2.83
2022-12-18T12:46:51.213Z,-2.82
2022-12-18T12:47:55.831Z,-2.81
2022-12-18T12:49:04.518Z,-2.80
2022-12-18T12:50:15.051Z,-2.79
2022-12-18T12:51:21.625Z,-2.77
2022-12-18T12:52:32.917Z,-2.78
2022-12-18T12:53:40.162Z,-2.77
2022-12-18T12:54:45.925Z,-2.76
2022-12-18T12:55:48.086Z,-2.76
2022-12-18T12:56:57.741Z,-2.76
2022-12-18T12:58:07.758Z,-2.76
2022-12-18T12:59:19.215Z,-2.76
2022-12-18T13:00:21.327Z,-2.76
2022-12-18T13:01:37.509Z,-2.76
2022-12-18T13:02:49.552Z,-2.76
2022-12-18T13:04:04.348Z,-2.76
2022-12-18T13:05:19.306Z,-2.75
2022-12-18T13:06:34.811Z,-2.74
2022-12-18T13:07:42.599Z,-2.73
2022-12-18T13:08:57.039Z,-2.73
2022-12-18T13:10:27.422Z,-2.73
2022-12-18T13:12:00.373Z,-2.73
2022-12-18T13:13:05.083Z,-2.77
2022-12-18T13:14:23.682Z,-2.78
2022-12-18T13:15:36.709Z,-2.79
2022-12-18T13:16:40.675Z,-2.79
2022-12-18T13:17:44.137Z,-2.79
2022-12-18T13:18:51.929Z,-2.79
2022-12-18T13:20:06.747Z,-2.79
2022-12-18T13:21:20.982Z,-2.78
2022-12-18T13:22:26.652Z,-2.77
2022-12-18T13:23:33.117Z,-2.77
2022-12-18T13:24:35.461Z,-2.76
2022-12-18T13:25:39.726Z,-2.76
2022-12-18T13:26:42.828Z,-2.76
2022-12-18T13:28:00.674Z,-2.75
2022-12-18T13:29:07.038Z,-2.75
2022-12-18T13:30:38.828Z,-2.73
2022-12-18T13:32:20.743Z,-2.74
2022-12-18T13:35:42.958Z,-2.73
2022-12-18T13:36:47.692Z,-2.75
2022-12-18T13:37:55.565Z,-2.75
2022-12-18T13:39:34.893Z,-2.75
2022-12-18T13:40:57.650Z,-2.77
2022-12-18T13:43:00.537Z,-2.81
2022-12-18T13:44:14.593Z,-2.81
2022-12-18T13:45:40.853Z,-2.84
2022-12-18T13:46:46.497Z,-2.84
2022-12-18T13:47:48.825Z,-2.86
2022-12-18T13:48:56.022Z,-2.85
2022-12-18T13:49:59.630Z,-2.85
2022-12-18T13:51:06.253Z,-2.83
2022-12-18T13:52:20.304Z,-2.82
2022-12-18T13:53:25.933Z,-2.80
2022-12-18T13:54:35.055Z,-2.80
2022-12-18T13:55:37.046Z,-2.78
2022-12-18T13:56:45.698Z,-2.79
2022-12-18T13:57:48.008Z,-2.82
2022-12-18T13:59:13.047Z,-2.83
2022-12-18T14:00:26.756Z,-2.83
2022-12-18T14:01:29.724Z,-2.82
2022-12-18T14:02:34.059Z,-2.81
2022-12-18T14:03:37.113Z,-2.83
2022-12-18T14:04:38.980Z,-2.82
2022-12-18T14:05:43.423Z,-2.82
2022-12-18T14:06:51.362Z,-2.81
2022-12-18T14:07:53.571Z,-2.82
2022-12-18T14:08:57.611Z,-2.85
2022-12-18T14:10:18.787Z,-2.85
2022-12-18T14:11:26.807Z,-2.85
2022-12-18T14:12:50.055Z,-2.84
2022-12-18T14:13:54.391Z,-2.83
2022-12-18T14:14:56.998Z,-2.82
2022-12-18T14:16:04.027Z,-2.85
2022-12-18T14:17:10.942Z,-2.86
2022-12-18T14:18:22.738Z,-2.87
2022-12-18T14:19:26.478Z,-2.87
2022-12-18T14:20:30.683Z,-2.86
2022-12-18T14:21:36.135Z,-2.86